createdAt,value
2018-11-12T00:02:13.548Z,5.51
2018-11-12T00:04:45.607Z,5.43
2018-11-12T00:07:16.761Z,5.43
2018-11-12T00:09:48.675Z,5.50
2018-11-12T00:12:20.597Z,5.49
2018-11-12T00:14:50.713Z,5.50
2018-11-12T00:17:21.924Z,5.52
2018-11-12T00:19:52.456Z,5.58
2018-11-12T00:22:22.681Z,5.59
2018-11-12T00:24:54.025Z,5.67
2018-11-12T00:27:26.755Z,5.76
2018-11-12T00:29:57.747Z,5.77
2018-11-12T00:32:28.863Z,5.83
2018-11-12T00:34:58.588Z,5.83
2018-11-12T00:37:28.693Z,5.87
2018-11-12T00:39:58.543Z,5.87
2018-11-12T00:42:30.603Z,5.88
2018-11-12T00:45:01.928Z,5.81
2018-11-12T00:47:33.942Z,5.76
2018-11-12T00:50:05.365Z,5.77
2018-11-12T00:52:35.246Z,5.77
2018-11-12T00:55:05.006Z,5.78
2018-11-12T00:57:36.051Z,5.83
2018-11-12T01:00:11.184Z,5.94
2018-11-12T01:02:44.837Z,5.93
2018-11-12T01:05:17.762Z,6.04
2018-11-12T01:07:50.171Z,6.12
2018-11-12T01:10:20.828Z,6.21
2018-11-12T01:12:51.147Z,6.31
2018-11-12T01:15:22.427Z,6.31
2018-11-12T01:17:54.923Z,6.24
2018-11-12T01:20:25.999Z,6.24
2018-11-12T01:22:56.066Z,6.24
2018-11-12T01:25:27.215Z,6.29
2018-11-12T01:27:57.748Z,6.37
2018-11-12T01:30:27.998Z,6.43
2018-11-12T01:32:58.427Z,6.54
2018-11-12T01:35:29.910Z,6.69
2018-11-12T01:38:00.293Z,6.75
2018-11-12T01:40:31.055Z,6.80
2018-11-12T01:43:01.823Z,6.90
2018-11-12T01:45:32.222Z,7.00
2018-11-12T01:48:02.343Z,7.08
2018-11-12T01:50:33.711Z,7.05
2018-11-12T01:53:05.112Z,7.14
2018-11-12T01:55:39.988Z,7.11
2018-11-12T01:58:11.478Z,7.13
2018-11-12T02:00:41.366Z,7.12
2018-11-12T02:03:12.074Z,7.15
2018-11-12T02:05:42.277Z,7.10
2018-11-12T02:08:13.399Z,7.13
2018-11-12T02:10:43.299Z,7.14
2018-11-12T02:13:14.449Z,7.16
2018-11-12T02:15:44.351Z,7.16
2018-11-12T02:18:14.487Z,7.21
2018-11-12T02:20:45.190Z,7.20
2018-11-12T02:23:15.430Z,7.19
2018-11-12T02:25:46.479Z,7.18
2018-11-12T02:28:20.195Z,7.18
2018-11-12T02:30:50.435Z,7.20
2018-11-12T02:33:21.578Z,7.23
2018-11-12T02:35:56.791Z,7.24
2018-11-12T02:38:27.434Z,7.24
2018-11-12T02:40:58.563Z,7.25
2018-11-12T02:43:28.975Z,7.24
2018-11-12T02:45:58.782Z,7.27
2018-11-12T02:48:33.370Z,7.28
2018-11-12T02:51:05.005Z,7.28
2018-11-12T02:53:42.271Z,7.28
2018-11-12T02:56:13.738Z,7.30
2018-11-12T02:58:44.240Z,7.31
2018-11-12T03:01:20.009Z,7.32
2018-11-12T03:03:52.868Z,7.33
2018-11-12T03:06:22.942Z,7.32
2018-11-12T03:08:53.612Z,7.33
2018-11-12T03:11:24.509Z,7.33
2018-11-12T03:13:54.684Z,7.29
2018-11-12T03:16:25.600Z,7.30
2018-11-12T03:18:55.714Z,7.30
2018-11-12T03:21:26.679Z,7.32
2018-11-12T03:23:56.597Z,7.36
2018-11-12T03:26:27.548Z,7.33
2018-11-12T03:28:57.579Z,7.32
2018-11-12T03:31:28.606Z,7.33
2018-11-12T03:33:58.451Z,7.33
2018-11-12T03:36:29.680Z,7.32
2018-11-12T03:38:59.473Z,7.35
2018-11-12T03:41:30.875Z,7.36
2018-11-12T03:44:01.671Z,7.35
2018-11-12T03:46:31.876Z,7.38
2018-11-12T03:49:01.779Z,7.40
2018-11-12T03:51:33.574Z,7.42
2018-11-12T03:54:03.672Z,7.45
2018-11-12T03:56:35.051Z,7.54
2018-11-12T03:59:05.307Z,7.50
2018-11-12T04:01:40.623Z,7.56
2018-11-12T04:04:12.466Z,7.52
2018-11-12T04:06:44.670Z,7.65
2018-11-12T04:09:16.970Z,7.55
2018-11-12T04:11:46.821Z,7.53
2018-11-12T04:14:17.964Z,7.53
2018-11-12T04:16:47.861Z,7.53
2018-11-12T04:19:18.819Z,7.42
2018-11-12T04:21:49.825Z,7.45
2018-11-12T04:24:20.849Z,7.40
2018-11-12T04:26:50.831Z,7.41
2018-11-12T04:29:23.286Z,7.47
2018-11-12T04:31:52.894Z,7.46
2018-11-12T04:34:23.202Z,7.44
2018-11-12T04:36:54.447Z,7.56
2018-11-12T04:39:28.188Z,7.49
2018-11-12T04:41:57.806Z,7.40
2018-11-12T04:44:28.742Z,7.36
2018-11-12T04:46:58.794Z,7.37
2018-11-12T04:49:28.898Z,7.39
2018-11-12T04:51:58.654Z,7.43
2018-11-12T04:54:30.665Z,7.42
2018-11-12T04:57:01.274Z,7.42
2018-11-12T04:59:31.051Z,7.41
2018-11-12T05:02:02.193Z,7.42
2018-11-12T05:04:39.137Z,7.38
2018-11-12T05:07:09.779Z,7.40
2018-11-12T05:09:40.151Z,7.41
2018-11-12T05:12:11.061Z,7.44
2018-11-12T05:14:41.639Z,7.45
2018-11-12T05:17:14.146Z,7.48
2018-11-12T05:19:45.355Z,7.54
2018-11-12T05:22:16.382Z,7.57
2018-11-12T05:24:47.484Z,7.59
2018-11-12T05:27:17.199Z,7.61
2018-11-12T05:29:48.132Z,7.59
2018-11-12T05:32:19.283Z,7.63
2018-11-12T05:34:49.193Z,7.60
2018-11-12T05:37:20.197Z,7.62
2018-11-12T05:39:51.395Z,7.61
2018-11-12T05:42:22.369Z,7.73
2018-11-12T05:44:53.416Z,7.71
2018-11-12T05:47:23.227Z,7.70
2018-11-12T05:49:56.139Z,7.70
2018-11-12T05:52:27.351Z,7.71
2018-11-12T05:54:57.327Z,7.72
2018-11-12T05:57:28.553Z,7.72
2018-11-12T05:59:58.856Z,7.73
2018-11-12T06:02:29.399Z,7.77
2018-11-12T06:04:59.096Z,7.80
2018-11-12T06:07:30.342Z,7.87
2018-11-12T06:10:02.375Z,7.83
2018-11-12T06:12:34.293Z,7.91
2018-11-12T06:15:05.694Z,7.88
2018-11-12T06:17:35.327Z,7.86
2018-11-12T06:20:15.596Z,7.87
2018-11-12T06:22:45.460Z,7.90
2018-11-12T06:25:19.333Z,7.94
2018-11-12T06:27:49.810Z,7.94
2018-11-12T06:30:21.949Z,8.00
2018-11-12T06:32:54.585Z,8.02
2018-11-12T06:35:24.702Z,8.04
2018-11-12T06:37:55.979Z,8.05
2018-11-12T06:40:27.368Z,8.09
2018-11-12T06:42:57.182Z,8.10
2018-11-12T06:45:28.760Z,8.10
2018-11-12T06:47:58.898Z,8.16
2018-11-12T06:50:30.668Z,8.17
2018-11-12T06:53:03.152Z,8.24
2018-11-12T06:55:33.389Z,8.23
2018-11-12T06:58:05.187Z,8.21
2018-11-12T07:00:37.556Z,8.16
2018-11-12T07:03:08.854Z,8.17
2018-11-12T07:05:38.765Z,8.13
2018-11-12T07:08:10.628Z,8.14
2018-11-12T07:10:42.685Z,8.20
2018-11-12T07:13:14.056Z,8.24
2018-11-12T07:15:43.990Z,8.23
2018-11-12T07:18:15.899Z,8.29
2018-11-12T07:20:47.664Z,8.27
2018-11-12T07:23:18.611Z,8.29
2018-11-12T07:25:48.681Z,8.29
2018-11-12T07:28:19.835Z,8.30
2018-11-12T07:30:50.782Z,8.30
2018-11-12T07:33:21.275Z,8.32
2018-11-12T07:35:51.725Z,8.35
2018-11-12T07:38:21.913Z,8.37
2018-11-12T07:40:53.009Z,8.43
2018-11-12T07:43:25.155Z,8.41
2018-11-12T07:45:56.762Z,8.41
2018-11-12T07:48:27.809Z,8.47
2018-11-12T07:50:58.821Z,8.46
2018-11-12T07:53:28.816Z,8.52
2018-11-12T07:55:58.815Z,8.54
2018-11-12T07:58:33.828Z,8.51
2018-11-12T08:01:06.949Z,8.52
2018-11-12T08:03:38.209Z,8.58
2018-11-12T08:06:08.964Z,8.60
2018-11-12T08:08:40.131Z,8.57
2018-11-12T08:11:10.903Z,8.57
2018-11-12T08:13:47.898Z,8.65
2018-11-12T08:16:18.916Z,8.77
2018-11-12T08:18:51.226Z,8.67
2018-11-12T08:21:21.641Z,8.73
2018-11-12T08:23:51.950Z,8.77
2018-11-12T08:26:22.796Z,8.77
2018-11-12T08:28:53.035Z,8.79
2018-11-12T08:31:25.154Z,8.77
2018-11-12T08:33:54.754Z,8.76
2018-11-12T08:36:24.983Z,8.79
2018-11-12T08:38:55.681Z,8.79
2018-11-12T08:41:26.033Z,8.79
2018-11-12T08:43:56.983Z,8.84
2018-11-12T08:46:27.127Z,8.89
2018-11-12T08:48:57.140Z,8.95
2018-11-12T08:51:28.202Z,8.96
2018-11-12T08:53:59.527Z,9.00
2018-11-12T08:56:29.322Z,9.04
2018-11-12T08:58:59.098Z,9.06
2018-11-12T09:01:31.189Z,9.07
2018-11-12T09:04:01.716Z,9.06
2018-11-12T09:06:32.487Z,9.06
2018-11-12T09:09:02.315Z,9.19
2018-11-12T09:11:33.570Z,9.20
2018-11-12T09:14:05.871Z,9.31
2018-11-12T09:16:35.505Z,9.35
2018-11-12T09:19:05.973Z,9.39
2018-11-12T09:21:36.103Z,9.44
2018-11-12T09:24:07.303Z,9.42
2018-11-12T09:26:37.652Z,9.46
2018-11-12T09:29:08.686Z,9.45
2018-11-12T09:31:38.929Z,9.45
2018-11-12T09:34:09.353Z,9.54
2018-11-12T09:36:40.666Z,9.52
2018-11-12T09:39:12.258Z,9.53
2018-11-12T09:41:43.235Z,9.54
2018-11-12T09:44:13.219Z,9.55
2018-11-12T09:46:44.396Z,9.56
2018-11-12T09:49:16.385Z,9.60
2018-11-12T09:51:48.544Z,9.56
2018-11-12T09:54:19.638Z,9.45
2018-11-12T09:56:49.603Z,9.49
2018-11-12T09:59:20.588Z,9.56
2018-11-12T10:01:50.757Z,9.62
2018-11-12T10:04:21.921Z,9.71
2018-11-12T10:06:53.009Z,9.72
2018-11-12T10:09:25.048Z,9.83
2018-11-12T10:11:53.774Z,9.75
2018-11-12T10:14:27.632Z,9.78
2018-11-12T10:16:57.927Z,9.82
2018-11-12T10:19:27.436Z,9.78
2018-11-12T10:21:59.146Z,9.82
2018-11-12T10:24:32.286Z,9.83
2018-11-12T10:27:02.688Z,9.83
2018-11-12T10:29:32.590Z,9.89
2018-11-12T10:32:02.658Z,9.87
2018-11-12T10:34:34.308Z,9.87
2018-11-12T10:37:14.452Z,9.89
2018-11-12T10:39:44.676Z,9.95
2018-11-12T10:42:16.808Z,9.93
2018-11-12T10:44:50.593Z,9.95
2018-11-12T10:47:23.202Z,9.88
2018-11-12T10:49:55.890Z,9.95
2018-11-12T10:52:26.693Z,9.97
2018-11-12T10:55:04.896Z,9.99
2018-11-12T10:57:26.730Z,10.01
2018-11-12T10:59:56.678Z,9.97
2018-11-12T11:02:27.471Z,10.01
2018-11-12T11:05:02.611Z,9.97
2018-11-12T11:07:32.798Z,10.00
2018-11-12T11:10:02.380Z,10.03
2018-11-12T11:12:32.902Z,10.06
2018-11-12T11:15:04.406Z,10.14
2018-11-12T11:17:36.939Z,10.12
2018-11-12T11:20:07.680Z,10.23
2018-11-12T11:22:37.620Z,10.23
2018-11-12T11:25:07.867Z,10.21
2018-11-12T11:27:40.047Z,10.23
2018-11-12T11:30:14.195Z,10.25
2018-11-12T11:32:46.086Z,10.16
2018-11-12T11:35:17.140Z,10.16
2018-11-12T11:37:46.943Z,10.12
2018-11-12T11:40:20.625Z,10.14
2018-11-12T11:42:52.016Z,10.24
2018-11-12T11:45:22.006Z,10.23
2018-11-12T11:47:52.870Z,10.24
2018-11-12T11:50:24.089Z,10.32
2018-11-12T11:52:56.073Z,10.29
2018-11-12T11:55:26.188Z,10.31
2018-11-12T11:57:57.601Z,10.31
2018-11-12T12:00:29.281Z,10.33
2018-11-12T12:03:00.203Z,10.29
2018-11-12T12:05:34.799Z,10.33
2018-11-12T12:08:06.221Z,10.27
2018-11-12T12:10:35.994Z,10.28
2018-11-12T12:13:06.185Z,10.29
2018-11-12T12:15:37.058Z,10.27
2018-11-12T12:18:09.406Z,10.24
2018-11-12T12:20:41.336Z,10.27
2018-11-12T12:23:12.107Z,10.28
2018-11-12T12:25:42.225Z,10.30
2018-11-12T12:28:15.244Z,10.30
2018-11-12T12:30:46.174Z,10.32
2018-11-12T12:33:16.862Z,10.27
2018-11-12T12:35:53.567Z,10.30
2018-11-12T12:38:26.011Z,10.24
2018-11-12T12:40:57.580Z,10.15
2018-11-12T12:43:29.152Z,10.06
2018-11-12T12:45:59.484Z,10.09
2018-11-12T12:48:30.428Z,10.09
2018-11-12T12:51:02.320Z,10.07
2018-11-12T12:53:34.393Z,10.16
2018-11-12T12:56:06.343Z,10.18
2018-11-12T12:58:36.334Z,10.12
2018-11-12T13:01:06.894Z,10.11
2018-11-12T13:03:37.358Z,10.14
2018-11-12T13:06:07.546Z,10.16
2018-11-12T13:08:39.050Z,10.21
2018-11-12T13:11:09.150Z,10.19
2018-11-12T13:13:40.314Z,10.08
2018-11-12T13:16:10.672Z,10.03
2018-11-12T13:18:40.889Z,9.99
2018-11-12T13:21:11.756Z,10.06
2018-11-12T13:23:42.095Z,10.06
2018-11-12T13:26:18.349Z,10.09
2018-11-12T13:28:48.875Z,10.11
2018-11-12T13:31:19.355Z,10.14
2018-11-12T13:33:49.591Z,10.20
2018-11-12T13:36:21.430Z,10.21
2018-11-12T13:38:54.328Z,10.23
2018-11-12T13:41:24.858Z,10.24
2018-11-12T13:43:55.503Z,10.27
2018-11-12T13:46:31.426Z,10.30
2018-11-12T13:49:02.807Z,10.32
2018-11-12T13:51:32.687Z,10.38
2018-11-12T13:54:03.363Z,10.35
2018-11-12T13:56:33.684Z,10.33
2018-11-12T13:59:04.302Z,10.32
2018-11-12T14:01:34.745Z,10.35
2018-11-12T14:04:05.803Z,10.37
2018-11-12T14:06:35.463Z,10.36
2018-11-12T14:09:13.010Z,10.35
2018-11-12T14:11:45.639Z,10.35
2018-11-12T14:14:16.757Z,10.35
2018-11-12T14:16:46.673Z,10.33
2018-11-12T14:19:16.635Z,10.33
2018-11-12T14:21:47.721Z,10.30
2018-11-12T14:24:17.646Z,10.34
2018-11-12T14:26:47.787Z,10.28
2018-11-12T14:29:18.697Z,10.25
2018-11-12T14:31:48.895Z,10.24
2018-11-12T14:34:19.323Z,10.21
2018-11-12T14:36:49.414Z,10.22
2018-11-12T14:39:26.582Z,10.18
2018-11-12T14:41:57.199Z,10.15
2018-11-12T14:44:27.753Z,10.12
2018-11-12T14:46:57.940Z,10.09
2018-11-12T14:49:28.982Z,10.06
2018-11-12T14:51:59.641Z,10.06
2018-11-12T14:54:30.218Z,10.01
2018-11-12T14:56:59.943Z,9.92
2018-11-12T14:59:39.767Z,9.93
2018-11-12T15:02:09.527Z,9.87
2018-11-12T15:04:41.868Z,9.85
2018-11-12T15:07:12.909Z,9.82
2018-11-12T15:09:43.848Z,9.78
2018-11-12T15:12:16.013Z,9.76
2018-11-12T15:14:48.065Z,9.73
2018-11-12T15:17:18.876Z,9.70
2018-11-12T15:19:51.163Z,9.65
2018-11-12T15:22:21.303Z,9.62
2018-11-12T15:24:51.582Z,9.55
2018-11-12T15:27:21.951Z,9.58
2018-11-12T15:29:58.010Z,9.60
2018-11-12T15:32:29.140Z,9.65
2018-11-12T15:34:58.963Z,9.64
2018-11-12T15:37:30.130Z,9.64
2018-11-12T15:39:59.964Z,9.61
2018-11-12T15:42:30.137Z,9.61
2018-11-12T15:44:59.843Z,9.57
2018-11-12T15:47:31.171Z,9.72
2018-11-12T15:50:03.095Z,9.66
2018-11-12T15:52:33.212Z,9.60
2018-11-12T15:55:03.254Z,9.58
2018-11-12T15:57:33.295Z,9.54
2018-11-12T16:00:02.994Z,9.49
2018-11-12T16:02:33.079Z,9.40
2018-11-12T16:05:03.365Z,9.38
2018-11-12T16:07:35.297Z,9.35
2018-11-12T16:17:10.322Z,9.00
2018-11-12T16:19:42.171Z,8.91
2018-11-12T16:22:12.195Z,8.97
2018-11-12T16:24:42.316Z,8.91
2018-11-12T16:27:13.236Z,8.93
2018-11-12T16:29:43.249Z,8.97
2018-11-12T16:32:14.180Z,8.97
2018-11-12T16:34:44.180Z,8.97
2018-11-12T16:37:15.402Z,9.05
2018-11-12T16:39:47.449Z,8.99
2018-11-12T16:42:19.193Z,8.95
2018-11-12T16:44:50.590Z,9.00
2018-11-12T16:47:20.306Z,9.01
2018-11-12T16:49:52.019Z,9.06
2018-11-12T16:52:23.360Z,9.08
2018-11-12T16:54:53.942Z,9.10
2018-11-12T16:57:23.603Z,9.09
2018-11-12T16:59:55.512Z,9.16
2018-11-12T17:02:26.312Z,9.19
2018-11-12T17:04:56.771Z,9.20
2018-11-12T17:07:26.399Z,9.24
2018-11-12T17:09:57.366Z,9.29
2018-11-12T17:12:27.474Z,9.35
2018-11-12T17:14:58.357Z,9.36
2018-11-12T17:17:28.998Z,9.37
2018-11-12T17:19:59.399Z,9.38
2018-11-12T17:22:29.750Z,9.43
2018-11-12T17:24:59.804Z,9.45
2018-11-12T17:27:30.532Z,9.54
2018-11-12T17:30:00.191Z,9.52
2018-11-12T17:32:31.682Z,9.52
2018-11-12T17:35:02.043Z,9.56
2018-11-12T17:37:32.536Z,9.55
2018-11-12T17:40:03.128Z,9.59
2018-11-12T17:42:33.442Z,9.70
2018-11-12T17:45:03.830Z,9.66
2018-11-12T17:47:35.041Z,9.70
2018-11-12T17:50:06.311Z,9.73
2018-11-12T17:52:36.056Z,9.69
2018-11-12T17:55:06.668Z,9.67
2018-11-12T17:57:37.358Z,9.71
2018-11-12T18:00:15.977Z,9.71
2018-11-12T18:02:47.062Z,9.71
2018-11-12T18:05:17.746Z,9.72
2018-11-12T18:07:48.962Z,9.70
2018-11-12T18:10:19.126Z,9.70
2018-11-12T18:12:49.697Z,9.74
2018-11-12T18:15:21.252Z,9.75
2018-11-12T18:17:51.730Z,9.77
2018-11-12T18:20:26.317Z,9.77
2018-11-12T18:22:57.979Z,9.83
2018-11-12T18:25:27.678Z,9.83
2018-11-12T18:27:58.115Z,9.83
2018-11-12T18:30:30.411Z,9.88
2018-11-12T18:33:01.335Z,9.86
2018-11-12T18:35:31.810Z,9.88
2018-11-12T18:38:02.896Z,9.97
2018-11-12T18:40:33.008Z,10.05
2018-11-12T18:43:07.241Z,10.02
2018-11-12T18:45:37.885Z,10.02
2018-11-12T18:48:10.104Z,10.07
2018-11-12T18:50:41.111Z,10.18
2018-11-12T18:53:11.022Z,10.17
2018-11-12T18:55:42.041Z,10.10
2018-11-12T18:58:11.995Z,10.07
2018-11-12T19:00:41.991Z,10.17
2018-11-12T19:03:14.051Z,10.06
2018-11-12T19:05:44.236Z,10.08
2018-11-12T19:08:16.243Z,10.04
2018-11-12T19:10:48.256Z,10.01
2018-11-12T19:13:24.722Z,10.15
2018-11-12T19:16:01.375Z,10.04
2018-11-12T19:21:30.376Z,10.06
2018-11-12T19:24:00.443Z,10.02
2018-11-12T19:29:14.257Z,10.04
2018-11-12T19:31:47.340Z,10.06
2018-11-12T19:34:17.736Z,9.97
2018-11-12T19:36:50.322Z,9.92
2018-11-12T19:39:23.262Z,9.93
2018-11-12T19:41:54.170Z,9.94
2018-11-12T19:44:26.276Z,9.94
2018-11-12T19:46:56.419Z,9.97
2018-11-12T19:49:26.242Z,9.95
2018-11-12T19:51:59.360Z,10.02
2018-11-12T19:54:30.060Z,9.90
2018-11-12T19:57:00.242Z,9.91
2018-11-12T19:59:30.330Z,9.87
2018-11-12T20:02:01.541Z,9.77
2018-11-12T20:04:31.484Z,9.82
2018-11-12T20:07:02.516Z,9.88
2018-11-12T20:09:32.723Z,9.87
2018-11-12T20:12:04.403Z,9.84
2018-11-12T20:14:36.810Z,9.90
2018-11-12T20:17:12.641Z,9.91
2018-11-12T20:19:43.743Z,9.86
2018-11-12T20:22:14.851Z,9.88
2018-11-12T20:24:48.244Z,9.96
2018-11-12T20:27:20.771Z,9.94
2018-11-12T20:29:52.191Z,9.93
2018-11-12T20:32:22.231Z,9.92
2018-11-12T20:34:55.218Z,9.93
2018-11-12T20:40:13.202Z,9.99
2018-11-12T20:42:46.091Z,9.98
2018-11-12T20:45:20.214Z,9.98
2018-11-12T20:47:54.476Z,10.05
2018-11-12T20:50:26.377Z,10.08
2018-11-12T20:52:56.619Z,9.98
2018-11-12T20:55:26.953Z,9.94
2018-11-12T20:57:57.803Z,10.01
2018-11-12T21:00:28.972Z,9.93
2018-11-12T21:02:59.991Z,9.93
2018-11-12T21:05:31.769Z,9.99
2018-11-12T21:08:04.580Z,10.06
2018-11-12T21:10:38.044Z,10.08
2018-11-12T21:13:09.630Z,9.99
2018-11-12T21:15:41.206Z,10.04
2018-11-12T21:18:13.800Z,10.07
2018-11-12T21:20:44.941Z,10.09
2018-11-12T21:23:15.967Z,10.06
2018-11-12T21:25:46.923Z,10.12
2018-11-12T21:28:17.167Z,10.14
2018-11-12T21:30:49.716Z,10.13
2018-11-12T21:33:19.799Z,10.06
2018-11-12T21:35:50.543Z,10.09
2018-11-12T21:38:22.013Z,10.05
2018-11-12T21:40:51.911Z,10.09
2018-11-12T21:43:21.877Z,10.12
2018-11-12T21:45:52.975Z,10.16
2018-11-12T21:48:22.816Z,10.07
2018-11-12T21:50:53.836Z,10.11
2018-11-12T21:53:24.295Z,10.15
2018-11-12T21:55:54.867Z,10.13
2018-11-12T21:58:25.443Z,10.08
2018-11-12T22:00:56.246Z,10.07
2018-11-12T22:03:26.784Z,10.13
2018-11-12T22:05:57.070Z,10.15
2018-11-12T22:08:28.077Z,10.16
2018-11-12T22:10:58.531Z,10.09
2018-11-12T22:13:29.102Z,10.08
2018-11-12T22:15:59.946Z,10.16
2018-11-12T22:18:30.256Z,10.18
2018-11-12T22:21:00.067Z,10.12
2018-11-12T22:23:30.987Z,10.13
2018-11-12T22:26:00.873Z,10.13
2018-11-12T22:28:32.566Z,10.16
2018-11-12T22:31:03.297Z,10.14
2018-11-12T22:33:33.760Z,10.07
2018-11-12T22:36:04.085Z,10.10
2018-11-12T22:38:35.001Z,10.06
2018-11-12T22:41:05.815Z,10.13
2018-11-12T22:43:35.681Z,10.22
2018-11-12T22:46:06.828Z,10.18
2018-11-12T22:48:36.900Z,10.13
2018-11-12T22:51:07.329Z,10.10
2018-11-12T22:53:37.610Z,10.09
2018-11-12T22:56:08.102Z,10.15
2018-11-12T22:58:38.561Z,10.18
2018-11-12T23:01:09.094Z,10.30
2018-11-12T23:03:39.803Z,10.24
2018-11-12T23:06:12.574Z,10.27
2018-11-12T23:08:52.382Z,10.22
2018-11-12T23:11:23.078Z,10.23
2018-11-12T23:13:54.198Z,10.18
2018-11-12T23:16:24.821Z,10.24
2018-11-12T23:18:57.098Z,10.08
2018-11-12T23:21:28.065Z,10.17
2018-11-12T23:23:58.674Z,10.06
2018-11-12T23:26:28.451Z,10.04
2018-11-12T23:29:00.240Z,9.98
2018-11-12T23:31:30.550Z,9.95
2018-11-12T23:34:01.170Z,9.91
2018-11-12T23:36:32.152Z,9.89
2018-11-12T23:39:02.414Z,9.86
2018-11-12T23:41:33.126Z,9.87
2018-11-12T23:44:03.231Z,9.88
2018-11-12T23:46:34.472Z,9.87
2018-11-12T23:49:04.846Z,9.88
2018-11-12T23:51:35.413Z,9.97
2018-11-12T23:54:06.375Z,10.17
2018-11-12T23:56:37.296Z,10.02
2018-11-12T23:59:08.412Z,10.03
